Time;durP1;ratioP1;P1;durP2;ratioP2;P2;SDS_P1;SDS_P2;PMS_P1;PMS_P2;Temp;Humidity;BMP_temperature;BMP_pressure;BME280_temperature;BME280_humidity;BME280_pressure;Samples;Min_cycle;Max_cycle;Signal;HPM_P1;HPM_P2
2021/01/27 00:02:12;;;;;;;53.40;22.80;;;-3.30;99.90;;;;;;5085291;28;20055;-47
2021/01/27 00:04:38;;;;;;;47.15;20.48;;;-3.20;99.90;;;;;;5090111;28;20051;-48
2021/01/27 00:07:05;;;;;;;38.65;18.13;;;-3.20;99.90;;;;;;5081984;28;20316;-47
2021/01/27 00:09:31;;;;;;;50.72;21.42;;;-3.20;99.90;;;;;;5081319;28;20043;-47
2021/01/27 00:11:58;;;;;;;37.58;16.88;;;-3.40;99.90;;;;;;5084140;28;20044;-49
2021/01/27 00:14:24;;;;;;;22.05;12.05;;;-3.60;99.90;;;;;;5074309;28;20060;-47
2021/01/27 00:16:52;;;;;;;31.42;13.25;;;-3.70;99.90;;;;;;5085999;28;20055;-47
2021/01/27 00:19:18;;;;;;;25.33;12.80;;;-3.70;99.90;;;;;;5083736;28;20135;-47
2021/01/27 00:21:45;;;;;;;22.85;10.48;;;-3.60;99.90;;;;;;5088937;28;20059;-47
2021/01/27 00:24:11;;;;;;;18.52;9.73;;;-3.70;99.90;;;;;;5084638;28;20056;-48
2021/01/27 00:26:38;;;;;;;21.48;9.48;;;-3.70;99.90;;;;;;5052733;28;20503;-48
2021/01/27 00:29:04;;;;;;;16.75;7.93;;;-3.60;99.90;;;;;;5084814;28;20048;-47
2021/01/27 00:31:31;;;;;;;16.58;7.97;;;-3.60;99.90;;;;;;5088335;28;20051;-49
2021/01/27 00:33:58;;;;;;;42.30;18.10;;;-3.60;99.90;;;;;;5085975;28;20036;-47
2021/01/27 00:36:24;;;;;;;40.03;16.83;;;-3.70;99.90;;;;;;5077431;28;20068;-48
2021/01/27 00:38:51;;;;;;;32.33;13.02;;;-3.80;99.90;;;;;;5077363;28;20044;-48
2021/01/27 00:41:17;;;;;;;21.48;10.05;;;-3.70;99.90;;;;;;5080109;28;20472;-49
2021/01/27 00:43:44;;;;;;;25.92;9.85;;;-3.70;99.90;;;;;;5088823;28;20550;-48
2021/01/27 00:46:11;;;;;;;19.88;9.02;;;-3.70;99.90;;;;;;5084041;28;20046;-47
2021/01/27 00:48:37;;;;;;;17.85;8.07;;;-3.80;99.90;;;;;;5075975;28;20049;-48
2021/01/27 00:51:04;;;;;;;17.77;9.15;;;-3.80;99.90;;;;;;5088016;28;20044;-47
2021/01/27 00:53:31;;;;;;;13.57;6.30;;;-3.80;99.90;;;;;;5084610;28;20388;-47
2021/01/27 00:55:57;;;;;;;12.75;6.57;;;-3.80;99.90;;;;;;5088412;28;20055;-47
2021/01/27 00:58:24;;;;;;;14.13;5.72;;;-4.00;99.90;;;;;;5082662;28;20047;-48
2021/01/27 01:00:50;;;;;;;11.35;5.95;;;-4.10;99.90;;;;;;5080085;28;20041;-47
2021/01/27 01:03:17;;;;;;;11.95;5.63;;;-3.90;99.90;;;;;;5066345;28;20138;-47
2021/01/27 01:05:45;;;;;;;9.55;4.65;;;-3.90;99.90;;;;;;5087205;28;20048;-47
2021/01/27 01:08:13;;;;;;;14.43;6.80;;;-4.10;99.90;;;;;;5081333;28;20049;-47
2021/01/27 01:10:44;;;;;;;13.25;6.95;;;-4.20;99.90;;;;;;5073923;28;20404;-48
2021/01/27 01:13:15;;;;;;;18.92;7.25;;;-4.30;99.90;;;;;;5080567;28;20067;-49
2021/01/27 01:15:41;;;;;;;14.80;7.47;;;-4.30;99.90;;;;;;5077703;28;20055;-48
2021/01/27 01:18:10;;;;;;;17.88;8.00;;;-4.40;99.90;;;;;;5089036;28;20131;-48
2021/01/27 01:20:37;;;;;;;19.45;7.90;;;-4.50;99.90;;;;;;5084194;28;20500;-47
2021/01/27 01:23:04;;;;;;;13.27;6.63;;;-4.50;99.90;;;;;;5083852;28;20060;-48
2021/01/27 01:25:34;;;;;;;13.73;6.53;;;-4.50;99.90;;;;;;5089976;28;20389;-47
2021/01/27 01:28:02;;;;;;;12.55;5.50;;;-4.40;99.90;;;;;;5078666;28;20056;-48
2021/01/27 01:30:35;;;;;;;10.27;4.95;;;-4.40;99.90;;;;;;5091696;28;20047;-48
2021/01/27 01:33:04;;;;;;;11.70;5.23;;;-4.30;99.90;;;;;;5086469;28;20047;-47
2021/01/27 01:35:31;;;;;;;13.57;4.78;;;-4.30;99.90;;;;;;5085605;28;20047;-47
2021/01/27 01:37:58;;;;;;;14.13;5.00;;;-4.30;99.90;;;;;;5088848;28;20040;-48
2021/01/27 01:40:30;;;;;;;10.68;4.78;;;-4.40;99.90;;;;;;5076659;28;20044;-47
2021/01/27 01:43:21;;;;;;;9.07;4.50;;;-4.40;99.90;;;;;;5089474;28;20666;-47
2021/01/27 01:45:53;;;;;;;8.73;4.63;;;-4.30;99.90;;;;;;5087000;28;20055;-47
2021/01/27 01:48:43;;;;;;;13.25;5.53;;;-4.30;99.90;;;;;;5087897;28;20045;-48
2021/01/27 01:51:55;;;;;;;6.45;3.53;;;-4.30;99.90;;;;;;5088010;28;20059;-47
2021/01/27 01:54:37;;;;;;;7.78;3.47;;;-4.10;99.90;;;;;;5078379;28;20394;-48
2021/01/27 01:57:19;;;;;;;10.45;5.97;;;-4.10;99.90;;;;;;5082447;28;20052;-47
2021/01/27 01:59:57;;;;;;;12.60;5.70;;;-4.20;99.90;;;;;;5088888;28;20545;-48
2021/01/27 02:02:23;;;;;;;16.27;6.30;;;-4.30;99.90;;;;;;5081297;28;20040;-47
2021/01/27 02:05:08;;;;;;;13.57;7.35;;;-4.30;99.90;;;;;;5079553;28;20063;-48
2021/01/27 02:07:35;;;;;;;15.75;6.97;;;-4.30;99.90;;;;;;5083883;28;20044;-48
2021/01/27 02:10:02;;;;;;;13.60;6.75;;;-4.40;99.90;;;;;;5073105;28;20044;-49
2021/01/27 02:12:41;;;;;;;14.77;6.68;;;-4.40;99.90;;;;;;5084001;28;20564;-47
2021/01/27 02:15:17;;;;;;;23.23;10.95;;;-4.50;99.90;;;;;;5077092;28;20055;-47
2021/01/27 02:18:17;;;;;;;33.13;11.57;;;-4.60;99.90;;;;;;5080179;28;20045;-47
2021/01/27 02:21:12;;;;;;;13.05;4.40;;;-4.60;99.90;;;;;;5082773;28;20044;-47
2021/01/27 02:23:57;;;;;;;16.30;6.78;;;-4.50;99.90;;;;;;5086532;28;20062;-47
2021/01/27 02:26:45;;;;;;;12.57;5.82;;;-4.60;99.90;;;;;;5087510;28;20056;-47
2021/01/27 02:29:30;;;;;;;13.00;4.65;;;-4.90;99.90;;;;;;5083980;28;20054;-47
2021/01/27 02:32:03;;;;;;;15.50;5.78;;;-4.90;99.90;;;;;;5087739;28;20056;-47
2021/01/27 02:34:41;;;;;;;10.38;4.25;;;-5.10;99.90;;;;;;5086978;28;20051;-48
2021/01/27 02:37:14;;;;;;;12.63;5.28;;;-5.20;99.90;;;;;;5085429;28;20043;-48
2021/01/27 02:39:56;;;;;;;10.98;4.82;;;-5.20;99.90;;;;;;5089355;28;20044;-47
2021/01/27 02:42:39;;;;;;;10.02;4.68;;;-5.30;99.90;;;;;;5085358;28;20055;-48
2021/01/27 02:45:22;;;;;;;8.10;4.43;;;-5.30;99.90;;;;;;5086109;28;20044;-48
2021/01/27 02:48:07;;;;;;;11.00;5.75;;;-5.40;99.90;;;;;;5090629;28;20048;-48
2021/01/27 02:50:39;;;;;;;7.55;4.45;;;-5.40;99.90;;;;;;5085503;28;20063;-48
2021/01/27 02:53:18;;;;;;;5.53;2.92;;;-5.40;99.90;;;;;;5083089;28;20044;-49
2021/01/27 02:56:07;;;;;;;12.18;4.53;;;-5.20;99.90;;;;;;5087411;28;20055;-47
2021/01/27 02:58:39;;;;;;;6.80;2.45;;;-5.10;99.90;;;;;;5084103;28;20048;-47
2021/01/27 03:01:10;;;;;;;7.07;2.63;;;-5.10;99.90;;;;;;5089732;28;20044;-47
2021/01/27 03:03:52;;;;;;;7.85;3.58;;;-5.20;99.90;;;;;;5083352;28;20083;-47
2021/01/27 03:06:20;;;;;;;5.13;2.25;;;-5.30;99.90;;;;;;5085990;28;20053;-49
2021/01/27 03:08:59;;;;;;;12.95;4.43;;;-5.30;99.90;;;;;;5089351;28;20147;-47
2021/01/27 03:11:32;;;;;;;9.10;3.35;;;-5.40;99.90;;;;;;5083309;28;20052;-48
2021/01/27 03:14:00;;;;;;;5.88;3.10;;;-5.40;99.90;;;;;;5091023;28;20088;-47
2021/01/27 03:16:56;;;;;;;6.55;2.70;;;-5.30;99.90;;;;;;5085241;28;20052;-47
2021/01/27 03:19:51;;;;;;;6.38;2.75;;;-5.30;99.90;;;;;;5065486;28;20453;-47
2021/01/27 03:22:22;;;;;;;6.07;1.90;;;-5.20;99.90;;;;;;5089997;28;20059;-47
2021/01/27 03:24:57;;;;;;;3.58;1.80;;;-5.20;99.90;;;;;;5085299;28;20412;-47
2021/01/27 03:27:29;;;;;;;5.88;2.22;;;-5.30;99.90;;;;;;5070755;28;20131;-47
2021/01/27 03:29:58;;;;;;;6.72;2.33;;;-5.30;99.90;;;;;;5086642;28;20052;-47
2021/01/27 03:32:48;;;;;;;5.30;2.53;;;-5.20;99.90;;;;;;5071476;28;20115;-47
2021/01/27 03:35:37;;;;;;;6.18;2.20;;;-5.20;99.90;;;;;;5088848;28;20044;-47
2021/01/27 03:38:27;;;;;;;3.92;1.80;;;-5.00;99.90;;;;;;5084096;28;20408;-47
2021/01/27 03:41:01;;;;;;;8.02;3.20;;;-5.10;99.90;;;;;;5074540;28;20047;-48
2021/01/27 03:43:28;;;;;;;4.85;3.00;;;-5.20;99.90;;;;;;5080938;28;20040;-49
2021/01/27 03:46:07;;;;;;;5.97;2.05;;;-5.30;99.90;;;;;;5076906;28;20044;-47
2021/01/27 03:48:40;;;;;;;4.75;2.78;;;-5.40;99.90;;;;;;5089936;28;20044;-47
2021/01/27 03:51:11;;;;;;;8.05;3.00;;;-5.40;99.90;;;;;;5086028;28;20333;-47
2021/01/27 03:53:38;;;;;;;6.13;2.80;;;-5.40;99.90;;;;;;5086537;28;20051;-47
2021/01/27 03:57:03;;;;;;;5.80;2.97;;;-5.30;99.90;;;;;;5085919;28;20055;-48
2021/01/27 03:59:30;;;;;;;8.27;2.28;;;-5.20;99.90;;;;;;4972653;28;20047;-47
2021/01/27 04:01:58;;;;;;;9.25;3.05;;;-5.30;99.90;;;;;;5067575;28;20044;-49
2021/01/27 04:04:26;;;;;;;6.85;3.30;;;-5.20;99.90;;;;;;5086359;28;20044;-48
2021/01/27 04:06:53;;;;;;;7.05;3.25;;;-5.30;99.90;;;;;;5076594;28;20052;-47
2021/01/27 04:09:19;;;;;;;7.93;3.97;;;-5.30;99.90;;;;;;5089322;28;20048;-49
2021/01/27 04:11:46;;;;;;;9.27;3.78;;;-5.30;99.90;;;;;;5083123;28;20048;-47
2021/01/27 04:14:12;;;;;;;7.97;3.50;;;-5.30;99.90;;;;;;5090802;28;21090;-47
2021/01/27 04:16:41;;;;;;;6.00;3.22;;;-5.40;99.90;;;;;;5083838;28;20052;-47
2021/01/27 04:19:08;;;;;;;7.13;3.35;;;-5.40;99.90;;;;;;5079750;28;20090;-48
2021/01/27 04:21:35;;;;;;;7.53;3.40;;;-5.60;99.90;;;;;;5085571;28;20056;-48
2021/01/27 04:24:02;;;;;;;5.70;2.13;;;-5.70;99.90;;;;;;5084986;28;20057;-48
2021/01/27 04:26:29;;;;;;;7.72;3.30;;;-5.90;99.90;;;;;;5089979;28;20048;-48
2021/01/27 04:28:56;;;;;;;5.72;2.33;;;-6.00;99.90;;;;;;5082746;28;20586;-48
2021/01/27 04:31:22;;;;;;;5.13;2.78;;;-6.10;99.90;;;;;;5083944;28;20055;-48
2021/01/27 04:33:49;;;;;;;7.65;3.28;;;-6.20;99.90;;;;;;5081914;28;20044;-48
2021/01/27 04:36:16;;;;;;;9.00;2.47;;;-6.20;99.90;;;;;;5086694;28;20036;-48
2021/01/27 04:38:43;;;;;;;8.02;2.97;;;-6.20;99.90;;;;;;5084464;28;20048;-47
2021/01/27 04:41:10;;;;;;;5.53;2.10;;;-6.20;99.90;;;;;;5081350;28;20059;-48
2021/01/27 04:43:41;;;;;;;4.25;2.25;;;-6.10;99.90;;;;;;5084581;28;20052;-47
2021/01/27 04:46:32;;;;;;;6.07;2.10;;;-6.00;99.90;;;;;;5077951;28;20150;-47
2021/01/27 04:49:15;;;;;;;6.20;2.33;;;-5.90;99.90;;;;;;5088380;28;20052;-47
2021/01/27 04:52:05;;;;;;;7.03;2.28;;;-6.10;99.90;;;;;;5084608;28;20055;-47
2021/01/27 04:54:57;;;;;;;8.18;4.00;;;-6.10;99.90;;;;;;5080137;28;20044;-47
2021/01/27 04:57:53;;;;;;;5.95;2.83;;;-6.00;99.90;;;;;;5079435;28;20052;-47
2021/01/27 05:00:28;;;;;;;8.50;3.58;;;-6.00;99.90;;;;;;5089828;28;20032;-48
2021/01/27 05:03:07;;;;;;;6.32;2.97;;;-5.90;99.90;;;;;;5079777;28;20435;-47
2021/01/27 05:05:37;;;;;;;8.50;3.60;;;-5.80;99.90;;;;;;5093297;28;20447;-47
2021/01/27 05:08:07;;;;;;;8.25;3.28;;;-5.90;99.90;;;;;;5086807;28;20842;-48
2021/01/27 05:10:44;;;;;;;5.82;3.47;;;-5.90;99.90;;;;;;5080169;28;20080;-48
2021/01/27 05:13:25;;;;;;;8.23;3.92;;;-5.80;99.90;;;;;;5087419;28;20063;-47
2021/01/27 05:15:56;;;;;;;7.50;2.78;;;-5.90;99.90;;;;;;5088634;28;20082;-48
2021/01/27 05:18:23;;;;;;;5.25;2.45;;;-5.80;99.90;;;;;;5091341;28;20044;-48
2021/01/27 05:20:50;;;;;;;6.10;2.97;;;-5.80;99.90;;;;;;5081043;28;20086;-47
2021/01/27 05:23:17;;;;;;;6.03;2.42;;;-5.70;99.90;;;;;;5088928;28;20415;-47
2021/01/27 05:25:59;;;;;;;6.10;1.83;;;-5.60;99.90;;;;;;5084553;28;20059;-47
2021/01/27 05:28:39;;;;;;;5.60;2.72;;;-5.60;99.90;;;;;;5075636;28;20051;-47
2021/01/27 05:31:06;;;;;;;4.30;2.03;;;-5.60;99.90;;;;;;5082517;28;20044;-48
2021/01/27 05:33:47;;;;;;;9.95;4.13;;;-5.80;99.90;;;;;;5085867;28;20074;-48
2021/01/27 05:36:27;;;;;;;8.48;2.85;;;-5.80;99.90;;;;;;5075396;28;20559;-47
2021/01/27 05:39:15;;;;;;;8.10;2.92;;;-5.80;99.90;;;;;;5088944;28;20044;-47
2021/01/27 05:41:43;;;;;;;5.78;2.63;;;-5.60;99.90;;;;;;5079602;28;20040;-47
2021/01/27 05:44:14;;;;;;;5.10;2.22;;;-5.60;99.90;;;;;;5081809;28;20052;-48
2021/01/27 05:46:41;;;;;;;8.75;3.72;;;-5.60;99.90;;;;;;5084267;28;20063;-47
2021/01/27 05:49:27;;;;;;;7.70;3.38;;;-5.60;99.90;;;;;;5075448;28;20936;-48
2021/01/27 05:52:16;;;;;;;7.05;4.03;;;-5.80;99.90;;;;;;5082961;28;20080;-47
2021/01/27 05:54:44;;;;;;;6.32;2.65;;;-6.10;99.90;;;;;;5078235;28;20045;-48
2021/01/27 05:57:18;;;;;;;6.30;2.40;;;-6.30;99.90;;;;;;5090859;28;20059;-47
2021/01/27 05:59:46;;;;;;;7.47;2.42;;;-6.30;99.90;;;;;;5085298;28;20051;-48
2021/01/27 06:02:14;;;;;;;5.60;2.70;;;-6.30;99.90;;;;;;5072560;28;20064;-47
2021/01/27 06:04:53;;;;;;;7.68;2.40;;;-6.40;99.90;;;;;;5085341;28;20052;-48
2021/01/27 06:07:27;;;;;;;8.10;1.98;;;-6.60;99.90;;;;;;5089322;28;20407;-48
2021/01/27 06:09:54;;;;;;;3.35;1.27;;;-6.70;99.90;;;;;;5077171;28;20048;-47
2021/01/27 06:12:21;;;;;;;4.88;1.45;;;-6.70;99.90;;;;;;5082828;28;20048;-48
2021/01/27 06:14:49;;;;;;;2.75;1.30;;;-6.60;99.90;;;;;;5076174;28;20044;-48
2021/01/27 06:17:26;;;;;;;1.52;1.00;;;-6.50;99.90;;;;;;5087356;28;20059;-47
2021/01/27 06:20:11;;;;;;;3.85;1.20;;;-6.50;99.90;;;;;;5089118;28;20368;-47
2021/01/27 06:22:56;;;;;;;3.15;1.05;;;-6.40;99.90;;;;;;5079447;28;20051;-48
2021/01/27 06:26:10;;;;;;;2.05;1.10;;;-6.30;99.90;;;;;;5081314;28;20048;-49
2021/01/27 06:29:13;;;;;;;5.68;1.67;;;-6.10;99.90;;;;;;4996695;28;20057;-48
2021/01/27 06:32:01;;;;;;;3.30;2.08;;;-6.10;99.90;;;;;;5025118;28;20513;-50
2021/01/27 06:34:43;;;;;;;9.25;4.47;;;-5.90;99.90;;;;;;5072435;28;20094;-49
2021/01/27 06:37:28;;;;;;;8.18;3.38;;;-5.90;99.90;;;;;;5087526;28;20079;-52
2021/01/27 06:40:23;;;;;;;7.93;3.53;;;-6.00;99.90;;;;;;5086152;28;20052;-49
2021/01/27 06:43:26;;;;;;;9.77;2.70;;;-5.90;99.90;;;;;;5072717;28;20468;-51
2021/01/27 06:46:25;;;;;;;6.55;1.92;;;-5.90;99.90;;;;;;5077410;28;20484;-49
2021/01/27 06:49:10;;;;;;;5.57;1.80;;;-6.00;99.90;;;;;;5086212;28;20420;-48
2021/01/27 06:51:39;;;;;;;4.40;1.38;;;-6.00;99.90;;;;;;5084716;28;20059;-50
2021/01/27 06:54:45;;;;;;;6.30;1.10;;;-5.80;99.90;;;;;;5089659;28;20052;-49
2021/01/27 06:57:17;;;;;;;4.82;1.60;;;-5.80;99.90;;;;;;5035222;28;20052;-49
2021/01/27 06:59:59;;;;;;;3.63;1.80;;;-5.90;99.90;;;;;;5084230;28;20063;-50
2021/01/27 07:02:47;;;;;;;10.73;4.40;;;-6.00;99.90;;;;;;5086252;28;20488;-50
2021/01/27 07:05:42;;;;;;;10.40;3.42;;;-6.10;99.90;;;;;;5087240;28;20079;-51
2021/01/27 07:08:29;;;;;;;21.33;6.82;;;-6.30;99.90;;;;;;5037342;28;20491;-51
2021/01/27 07:11:25;;;;;;;10.63;3.97;;;-6.20;99.90;;;;;;5090670;28;20047;-50
2021/01/27 07:14:22;;;;;;;54.47;18.23;;;-6.30;99.90;;;;;;5083850;28;20047;-49
2021/01/27 07:17:05;;;;;;;9.75;3.42;;;-6.40;99.90;;;;;;5080437;28;20060;-49
2021/01/27 07:19:44;;;;;;;3.70;1.77;;;-6.50;99.90;;;;;;5090065;28;20050;-48
2021/01/27 07:22:21;;;;;;;5.05;2.10;;;-6.50;99.90;;;;;;5088827;28;20055;-50
2021/01/27 07:25:07;;;;;;;4.07;1.60;;;-6.50;99.90;;;;;;5080198;28;20055;-48
2021/01/27 07:27:41;;;;;;;14.20;6.63;;;-6.40;99.90;;;;;;5090864;28;20476;-48
2021/01/27 07:30:19;;;;;;;7.95;2.65;;;-6.40;99.90;;;;;;5086428;28;20044;-52
2021/01/27 07:33:10;;;;;;;7.15;3.03;;;-6.40;99.90;;;;;;5087575;28;20480;-49
2021/01/27 07:35:42;;;;;;;8.05;1.30;;;-6.40;99.90;;;;;;5089432;28;20391;-51
2021/01/27 07:38:16;;;;;;;5.38;2.28;;;-6.20;99.90;;;;;;5078289;28;20044;-49
2021/01/27 07:41:03;;;;;;;8.50;4.05;;;-6.00;99.90;;;;;;5085063;28;20044;-49
2021/01/27 07:43:58;;;;;;;11.63;5.45;;;-5.80;99.90;;;;;;5082154;28;20044;-50
2021/01/27 07:47:03;;;;;;;6.70;3.38;;;-5.80;99.90;;;;;;5072791;28;20483;-49
2021/01/27 07:49:41;;;;;;;7.90;2.42;;;-5.60;99.90;;;;;;5069189;28;20066;-52
2021/01/27 07:52:18;;;;;;;11.57;4.60;;;-5.50;99.90;;;;;;5081122;28;20049;-50
2021/01/27 07:54:50;;;;;;;22.35;7.82;;;-5.40;99.90;;;;;;5075953;28;20049;-52
2021/01/27 07:57:20;;;;;;;20.30;6.95;;;-5.40;99.90;;;;;;5088972;28;20055;-51
2021/01/27 08:00:07;;;;;;;14.10;5.55;;;-5.30;99.90;;;;;;5084785;28;20040;-51
2021/01/27 08:03:01;;;;;;;16.30;6.72;;;-5.30;99.90;;;;;;5082600;28;20464;-49
2021/01/27 08:05:34;;;;;;;37.92;18.20;;;-5.20;99.90;;;;;;5060039;28;20049;-49
2021/01/27 08:08:09;;;;;;;;;;;-5.20;99.90;;;;;;5077356;28;20052;-49
2021/01/27 08:10:38;;;;;;;31.42;13.77;;;-5.40;99.90;;;;;;5089658;28;19931;-49
2021/01/27 08:13:26;;;;;;;38.55;14.63;;;-5.30;99.90;;;;;;5081277;28;20408;-49
2021/01/27 08:16:15;;;;;;;33.25;14.57;;;-5.30;99.90;;;;;;5083571;28;20077;-49
2021/01/27 08:19:10;;;;;;;32.97;16.58;;;-5.20;99.90;;;;;;5089357;28;20040;-49
2021/01/27 08:21:46;;;;;;;37.90;15.68;;;-5.20;99.90;;;;;;5081532;28;20054;-49
2021/01/27 08:24:37;;;;;;;19.80;9.93;;;-5.20;99.90;;;;;;5074885;28;20048;-48
2021/01/27 08:27:09;;;;;;;17.75;7.32;;;-5.20;99.90;;;;;;5079263;28;20048;-48
2021/01/27 08:30:02;;;;;;;3.22;1.17;;;-5.10;99.90;;;;;;5079004;28;20052;-48
2021/01/27 08:32:43;;;;;;;5.35;1.20;;;-4.90;99.90;;;;;;5071956;28;20048;-50
2021/01/27 08:35:32;;;;;;;10.43;3.22;;;-4.80;99.90;;;;;;5082558;28;20041;-49
2021/01/27 08:38:36;;;;;;;1.60;0.70;;;-4.70;99.90;;;;;;5063627;28;20051;-49
2021/01/27 08:41:07;;;;;;;3.33;2.00;;;-4.60;99.90;;;;;;4984823;28;20474;-49
2021/01/27 08:43:41;;;;;;;3.05;1.23;;;-4.40;99.90;;;;;;4987929;28;20057;-51
2021/01/27 08:46:32;;;;;;;9.98;4.95;;;-4.20;99.90;;;;;;4988841;28;20561;-51
2021/01/27 08:49:00;;;;;;;7.05;2.97;;;-3.90;99.90;;;;;;4987037;28;20058;-49
2021/01/27 08:51:50;;;;;;;17.45;6.28;;;-3.70;99.90;;;;;;4986700;28;20046;-50
2021/01/27 08:54:28;;;;;;;23.92;8.65;;;-3.60;99.90;;;;;;4987961;28;20057;-49
2021/01/27 08:57:15;;;;;;;26.80;10.73;;;-3.50;99.90;;;;;;4987640;28;20057;-49
2021/01/27 09:00:01;;;;;;;17.95;7.80;;;-3.50;99.90;;;;;;4989350;28;20391;-49
2021/01/27 09:02:47;;;;;;;11.27;5.53;;;-3.40;99.90;;;;;;4987764;28;20039;-52
2021/01/27 09:05:23;;;;;;;18.60;8.15;;;-3.40;99.90;;;;;;4984059;28;20047;-50
2021/01/27 09:07:55;;;;;;;4.25;2.38;;;-3.30;99.90;;;;;;4987993;28;20041;-49
2021/01/27 09:10:37;;;;;;;11.20;3.95;;;-3.20;99.90;;;;;;4988191;28;20150;-49
2021/01/27 09:13:23;;;;;;;14.75;4.63;;;-3.10;99.90;;;;;;4985424;28;20049;-49
2021/01/27 09:15:56;;;;;;;14.15;4.82;;;-3.00;99.90;;;;;;5065535;28;20044;-50
2021/01/27 09:18:23;;;;;;;74.82;32.10;;;-2.80;99.90;;;;;;5082666;28;20040;-49
2021/01/27 09:20:50;;;;;;;40.45;17.98;;;-2.60;99.90;;;;;;5077743;28;20399;-49
2021/01/27 09:23:20;;;;;;;7.88;4.15;;;-2.60;99.90;;;;;;5089092;28;20048;-49
2021/01/27 09:25:49;;;;;;;9.85;4.15;;;-2.50;99.90;;;;;;5083528;28;20052;-49
2021/01/27 09:28:24;;;;;;;2.85;1.40;;;-2.40;99.90;;;;;;5090197;28;20054;-49
2021/01/27 09:30:55;;;;;;;17.63;7.28;;;-2.30;99.90;;;;;;5081865;28;20071;-49
2021/01/27 09:33:32;;;;;;;15.63;4.75;;;-2.20;99.90;;;;;;5072600;28;20392;-49
2021/01/27 09:36:07;;;;;;;5.68;2.08;;;-2.20;99.90;;;;;;5079080;28;20408;-50
2021/01/27 09:38:34;;;;;;;36.00;11.32;;;-2.00;99.90;;;;;;5077985;28;20040;-50
2021/01/27 09:41:07;;;;;;;29.80;12.68;;;-1.90;99.90;;;;;;5075953;28;20041;-49
2021/01/27 09:43:40;;;;;;;15.40;6.38;;;-1.80;99.90;;;;;;5081716;28;20487;-49
2021/01/27 09:46:35;;;;;;;1.77;0.98;;;-1.80;99.90;;;;;;5089639;28;20122;-50
2021/01/27 09:49:10;;;;;;;1.88;0.60;;;-1.50;99.90;;;;;;5090055;28;20052;-50
2021/01/27 09:51:40;;;;;;;3.22;0.90;;;-1.40;99.90;;;;;;5085281;28;20052;-50
2021/01/27 09:54:07;;;;;;;1.17;0.70;;;-1.30;99.90;;;;;;5083601;28;20052;-50
2021/01/27 09:56:34;;;;;;;1.15;0.55;;;-1.20;99.90;;;;;;5086241;28;20036;-51
2021/01/27 09:59:01;;;;;;;2.03;0.65;;;-1.00;99.90;;;;;;5088825;28;20460;-50
2021/01/27 10:01:30;;;;;;;4.03;0.80;;;-0.90;99.90;;;;;;5088432;28;20051;-50
2021/01/27 10:04:13;;;;;;;1.05;0.50;;;-0.80;99.90;;;;;;5084941;28;20400;-50
2021/01/27 10:06:42;;;;;;;0.65;0.50;;;-0.70;99.90;;;;;;5085486;28;20494;-51
2021/01/27 10:09:23;;;;;;;16.35;5.65;;;-0.60;99.90;;;;;;5085977;28;20055;-51
2021/01/27 10:12:04;;;;;;;0.88;0.80;;;-0.40;99.90;;;;;;5073741;28;20127;-50
2021/01/27 10:14:37;;;;;;;1.25;1.15;;;-0.30;99.90;;;;;;5090710;28;20036;-50
2021/01/27 10:17:06;;;;;;;1.52;0.90;;;-0.30;99.90;;;;;;5083716;28;20043;-50
2021/01/27 10:19:34;;;;;;;1.10;0.80;;;-0.10;99.90;;;;;;5090263;28;20040;-50
2021/01/27 10:22:04;;;;;;;0.73;0.60;;;0.00;99.90;;;;;;5087375;28;20048;-50
2021/01/27 10:24:56;;;;;;;1.45;1.02;;;0.00;99.90;;;;;;5074442;28;20052;-50
2021/01/27 10:27:30;;;;;;;2.38;0.80;;;0.20;99.90;;;;;;5082506;28;20492;-49
2021/01/27 10:29:57;;;;;;;2.95;1.17;;;0.20;99.90;;;;;;5083485;28;20383;-50
2021/01/27 10:32:38;;;;;;;10.80;2.65;;;0.30;99.90;;;;;;5081400;28;20057;-50
2021/01/27 10:35:23;;;;;;;14.20;3.72;;;0.40;99.90;;;;;;5083281;28;20187;-50
2021/01/27 10:38:14;;;;;;;7.03;2.83;;;0.50;99.90;;;;;;5077601;28;20040;-53
2021/01/27 10:41:12;;;;;;;6.55;3.22;;;0.70;99.90;;;;;;5080130;28;20083;-49
2021/01/27 10:43:39;;;;;;;6.15;1.48;;;0.90;99.90;;;;;;5084403;28;20048;-51
2021/01/27 10:46:29;;;;;;;6.53;1.48;;;0.90;99.90;;;;;;5089150;28;20071;-50
2021/01/27 10:48:56;;;;;;;11.77;4.10;;;0.90;99.90;;;;;;5089568;28;20473;-50
2021/01/27 10:51:22;;;;;;;23.65;10.52;;;0.90;99.90;;;;;;5085570;28;20055;-50
2021/01/27 10:53:49;;;;;;;16.83;8.02;;;1.00;99.90;;;;;;5077431;28;20625;-50
2021/01/27 10:56:18;;;;;;;13.43;4.43;;;1.10;99.90;;;;;;5085390;28;20302;-50
2021/01/27 10:58:46;;;;;;;7.38;3.55;;;1.10;99.90;;;;;;5092213;28;20044;-50
2021/01/27 11:01:12;;;;;;;9.50;3.78;;;1.20;99.90;;;;;;5085825;28;20419;-50
2021/01/27 11:03:39;;;;;;;9.57;3.10;;;1.30;99.90;;;;;;5090139;28;20101;-49
2021/01/27 11:06:06;;;;;;;14.70;8.30;;;1.40;99.90;;;;;;5085098;28;20055;-50
2021/01/27 11:08:36;;;;;;;22.35;12.63;;;1.40;99.90;;;;;;5087020;28;20063;-49
2021/01/27 11:11:05;;;;;;;17.48;6.50;;;1.50;99.90;;;;;;5086602;28;20047;-51
2021/01/27 11:13:35;;;;;;;32.15;13.25;;;1.60;99.90;;;;;;5079097;28;20048;-49
2021/01/27 11:16:05;;;;;;;28.45;13.88;;;1.70;99.90;;;;;;5077520;28;20049;-50
2021/01/27 11:18:33;;;;;;;45.92;23.20;;;1.70;99.90;;;;;;5081000;28;20063;-50
2021/01/27 11:21:02;;;;;;;33.45;15.20;;;1.80;99.90;;;;;;5085438;28;20047;-53
2021/01/27 11:23:29;;;;;;;14.75;5.10;;;1.80;99.90;;;;;;5086138;28;20044;-51
2021/01/27 11:25:55;;;;;;;5.68;2.40;;;1.90;99.90;;;;;;5081433;28;20052;-50
2021/01/27 11:28:23;;;;;;;5.45;1.20;;;1.90;99.90;;;;;;5089544;28;20060;-50
2021/01/27 11:30:50;;;;;;;3.72;1.45;;;1.80;99.90;;;;;;5077280;28;20063;-50
2021/01/27 11:33:23;;;;;;;3.53;1.10;;;1.90;99.90;;;;;;5089280;28;20049;-50
2021/01/27 11:35:51;;;;;;;15.52;8.30;;;1.90;99.90;;;;;;5077523;28;20060;-50
2021/01/27 11:38:18;;;;;;;11.45;4.95;;;2.00;99.90;;;;;;5082813;28;20107;-50
2021/01/27 11:40:45;;;;;;;1.85;0.95;;;2.00;99.90;;;;;;5085476;28;20081;-50
2021/01/27 11:43:12;;;;;;;9.40;2.65;;;2.00;99.90;;;;;;5080707;28;20059;-50
2021/01/27 11:45:38;;;;;;;6.35;1.40;;;2.10;99.90;;;;;;5080311;28;20063;-50
2021/01/27 11:48:25;;;;;;;1.98;0.70;;;2.20;99.90;;;;;;5078657;28;20539;-50
2021/01/27 11:50:52;;;;;;;6.63;1.80;;;2.40;99.90;;;;;;5089779;28;20500;-50
2021/01/27 11:53:18;;;;;;;5.38;0.60;;;2.50;99.90;;;;;;5081857;28;20044;-51
2021/01/27 11:55:45;;;;;;;0.70;0.50;;;2.60;99.90;;;;;;5089904;28;20059;-50
2021/01/27 11:58:12;;;;;;;5.03;0.40;;;2.80;99.90;;;;;;5084003;28;20046;-50
2021/01/27 12:00:38;;;;;;;1.30;0.70;;;2.90;97.90;;;;;;5081656;28;20048;-50
2021/01/27 12:03:05;;;;;;;1.00;0.70;;;3.20;97.00;;;;;;5083254;28;20048;-50
2021/01/27 12:05:31;;;;;;;1.30;0.50;;;3.40;98.80;;;;;;5080202;28;20475;-50
2021/01/27 12:07:58;;;;;;;1.55;0.65;;;3.60;98.40;;;;;;5080667;28;20059;-50
2021/01/27 12:10:25;;;;;;;1.95;0.60;;;3.60;96.80;;;;;;5077726;28;20154;-50
2021/01/27 12:12:52;;;;;;;1.63;0.60;;;3.70;97.00;;;;;;5091152;28;20442;-50
2021/01/27 12:15:19;;;;;;;1.65;0.77;;;3.80;96.80;;;;;;5082223;28;20404;-54
2021/01/27 12:17:45;;;;;;;1.60;1.10;;;3.90;99.20;;;;;;5081326;28;20468;-51
2021/01/27 12:20:14;;;;;;;1.77;0.80;;;4.00;98.40;;;;;;5088021;28;20097;-51
2021/01/27 12:22:41;;;;;;;9.10;1.20;;;4.00;99.30;;;;;;5085504;28;20048;-54
2021/01/27 12:25:08;;;;;;;5.32;1.30;;;4.10;99.90;;;;;;5090179;28;20052;-53
2021/01/27 12:27:34;;;;;;;8.02;1.95;;;4.30;99.90;;;;;;5084951;28;20151;-53
2021/01/27 12:30:02;;;;;;;3.58;1.00;;;4.20;97.30;;;;;;5080843;28;20052;-54
2021/01/27 12:32:29;;;;;;;6.07;1.42;;;4.20;99.10;;;;;;5082535;28;20047;-54
2021/01/27 12:34:56;;;;;;;3.70;1.02;;;4.40;95.80;;;;;;5070940;28;20041;-54
2021/01/27 12:37:24;;;;;;;3.63;0.80;;;4.30;94.70;;;;;;5085445;28;20048;-50
2021/01/27 12:39:51;;;;;;;6.55;1.98;;;4.40;97.30;;;;;;5086150;28;20048;-50
2021/01/27 12:42:17;;;;;;;3.00;0.80;;;4.50;98.50;;;;;;5086612;28;20556;-52
2021/01/27 12:44:45;;;;;;;2.00;0.82;;;4.60;96.40;;;;;;5078516;28;20065;-54
2021/01/27 12:47:12;;;;;;;4.10;1.10;;;4.70;95.50;;;;;;5074425;28;20106;-51
2021/01/27 12:49:40;;;;;;;5.68;1.52;;;4.70;92.30;;;;;;5081424;28;20048;-50
2021/01/27 12:52:07;;;;;;;5.32;1.90;;;4.80;92.50;;;;;;5086787;28;20057;-51
2021/01/27 12:54:34;;;;;;;17.23;6.47;;;4.90;94.80;;;;;;5081871;28;20045;-50
2021/01/27 12:57:00;;;;;;;3.10;1.20;;;5.00;94.90;;;;;;5084302;28;20052;-50
2021/01/27 12:59:27;;;;;;;5.80;2.10;;;5.20;97.10;;;;;;5088264;28;20052;-50
2021/01/27 13:01:53;;;;;;;8.40;1.42;;;5.20;96.60;;;;;;5083445;28;20052;-50
2021/01/27 13:04:20;;;;;;;5.32;1.17;;;5.20;98.20;;;;;;5090478;28;20044;-51
2021/01/27 13:06:46;;;;;;;16.23;6.03;;;5.20;93.10;;;;;;5080585;28;20063;-50
2021/01/27 13:09:13;;;;;;;2.42;1.45;;;5.00;93.60;;;;;;5077145;28;20048;-52
2021/01/27 13:11:40;;;;;;;17.88;5.63;;;5.00;92.80;;;;;;5084965;28;20048;-51
2021/01/27 13:14:06;;;;;;;22.88;10.23;;;4.90;92.30;;;;;;5084841;28;20045;-54
2021/01/27 13:16:33;;;;;;;27.33;11.73;;;4.90;94.90;;;;;;5079124;28;20040;-51
2021/01/27 13:18:59;;;;;;;22.55;11.88;;;4.90;97.60;;;;;;5077900;28;20047;-51
2021/01/27 13:21:26;;;;;;;30.63;13.00;;;5.00;99.40;;;;;;5080435;28;20048;-51
2021/01/27 13:23:53;;;;;;;13.13;5.32;;;5.10;98.30;;;;;;5084216;28;20059;-51